Time;durP1;ratioP1;P1;durP2;ratioP2;P2;SDS_P1;SDS_P2;PMS_P1;PMS_P2;Temp;Humidity;BMP_temperature;BMP_pressure;BME280_temperature;BME280_humidity;BME280_pressure;Samples;Min_cycle;Max_cycle;Signal;HPM_P1;HPM_P2
2022/08/02 00:00:17;;;;;;;2.95;2.30;;;;;;;21.20;48.54;95040.72;5101531;28;20034;-85
2022/08/02 00:02:44;;;;;;;6.93;2.20;;;;;;;21.36;48.53;95038.84;5100932;28;20523;-85
2022/08/02 00:05:10;;;;;;;3.13;2.15;;;;;;;20.95;48.83;94978.00;5101028;28;20031;-85
2022/08/02 00:07:36;;;;;;;6.60;2.03;;;;;;;20.88;48.85;94972.41;5119557;28;20088;-85
2022/08/02 00:10:03;;;;;;;9.73;2.33;;;;;;;21.47;48.71;95058.78;5100890;27;20031;-85
2022/08/02 00:12:29;;;;;;;3.25;1.90;;;;;;;21.62;48.25;95090.44;5101600;28;20416;-85
2022/08/02 00:14:54;;;;;;;6.53;2.55;;;;;;;21.21;48.56;95026.88;5096906;28;20028;-84
2022/08/02 00:17:20;;;;;;;9.65;2.30;;;;;;;21.35;49.07;95061.56;5104923;27;20109;-84
2022/08/02 00:19:45;;;;;;;9.38;2.00;;;;;;;21.27;49.38;95055.19;5104005;27;20472;-84
2022/08/02 00:22:11;;;;;;;2.88;2.00;;;;;;;20.25;50.40;94945.97;5123082;27;20130;-84
2022/08/02 00:24:37;;;;;;;8.30;2.20;;;;;;;20.42;49.90;94961.91;5123455;27;20122;-84
2022/08/02 00:27:02;;;;;;;5.10;2.25;;;;;;;20.45;49.88;94935.38;5105008;27;20031;-85
2022/08/02 00:29:29;;;;;;;6.57;2.58;;;;;;;21.48;49.45;95090.84;5104572;27;20038;-84
2022/08/02 00:31:55;;;;;;;8.68;2.38;;;;;;;21.49;49.79;95091.63;5123405;27;20481;-84
2022/08/02 00:34:20;;;;;;;5.25;2.58;;;;;;;21.26;50.26;95071.72;5104857;27;20106;-86
2022/08/02 00:36:46;;;;;;;4.72;2.33;;;;;;;20.58;50.65;95002.38;5104002;27;20066;-85
2022/08/02 00:39:11;;;;;;;12.98;2.85;;;;;;;21.20;50.84;95092.75;5123150;27;20436;-85
2022/08/02 00:41:52;;;;;;;7.50;2.45;;;;;;;20.84;50.77;95033.50;5104693;27;20043;-85
2022/08/02 00:44:19;;;;;;;8.45;2.88;;;;;;;20.30;50.83;94948.41;5104622;27;20141;-85
2022/08/02 00:46:45;;;;;;;4.93;2.88;;;;;;;20.61;50.82;94988.22;5103945;27;20042;-85
2022/08/02 00:49:11;;;;;;;6.25;3.45;;;;;;;21.28;50.63;95101.81;5104927;27;20043;-85
2022/08/02 00:51:37;;;;;;;6.13;2.63;;;;;;;21.24;50.84;95087.44;5107218;27;20857;-85
2022/08/02 00:54:03;;;;;;;6.75;3.08;;;;;;;21.20;50.73;95097.34;5106487;27;20038;-85
2022/08/02 00:56:29;;;;;;;6.18;3.13;;;;;;;21.10;50.68;95077.81;5104302;27;20920;-85
2022/08/02 00:58:54;;;;;;;9.85;3.20;;;;;;;20.20;50.56;94940.03;5123919;27;20046;-85
2022/08/02 01:01:20;;;;;;;4.13;2.88;;;;;;;21.03;50.85;95087.59;5101497;28;20031;-85
2022/08/02 01:03:45;;;;;;;7.38;3.35;;;;;;;20.58;50.71;95015.84;5083464;28;20078;-85
2022/08/02 01:06:11;;;;;;;6.22;2.95;;;;;;;20.43;50.62;95003.09;5080101;28;20035;-86
2022/08/02 01:08:38;;;;;;;4.72;3.00;;;;;;;21.02;50.99;95096.81;5089493;28;20065;-86
2022/08/02 01:11:04;;;;;;;4.10;3.08;;;;;;;18.89;50.53;94761.91;5102255;28;20050;-86
2022/08/02 01:13:30;;;;;;;6.63;3.22;;;;;;;20.71;50.87;95060.50;5102621;28;20541;-86
2022/08/02 01:16:14;;;;;;;4.95;2.97;;;;;;;20.59;51.32;95052.44;5083749;28;20040;-86
2022/08/02 01:18:44;;;;;;;4.95;3.38;;;;;;;20.35;51.19;95012.88;5083908;28;20047;-86
2022/08/02 01:21:23;;;;;;;4.28;2.92;;;;;;;20.27;52.06;95064.13;5083380;28;20051;-86
2022/08/02 01:24:04;;;;;;;5.65;3.35;;;;;;;20.56;52.04;95096.22;5083265;28;20763;-86
2022/08/02 01:26:58;;;;;;;6.00;3.27;;;;;;;20.55;51.53;95102.72;5076146;28;20526;-86
2022/08/02 01:29:38;;;;;;;6.65;3.00;;;;;;;20.52;51.68;95100.69;5037010;28;20811;-86
2022/08/02 01:32:06;;;;;;;4.32;3.35;;;;;;;20.47;51.40;95095.53;5078582;28;20549;-86
2022/08/02 01:34:58;;;;;;;3.65;2.90;;;;;;;20.43;51.46;95091.97;5072623;28;20475;-86
2022/08/02 01:37:27;;;;;;;;;;;;;;;20.39;51.35;95091.84;5022314;28;20529;-86
2022/08/02 01:40:15;;;;;;;6.88;2.90;;;;;;;20.38;50.91;95086.78;5059241;28;19924;-86
2022/08/02 01:42:46;;;;;;;3.47;2.67;;;;;;;18.99;50.80;94887.78;5059386;28;20131;-86
2022/08/02 01:45:14;;;;;;;8.00;3.73;;;;;;;19.58;50.37;94984.25;5061066;28;20118;-86
2022/08/02 01:47:43;;;;;;;6.22;2.83;;;;;;;20.38;50.63;95090.28;5081548;28;20309;-86
2022/08/02 01:50:12;;;;;;;5.63;2.90;;;;;;;20.06;50.65;95061.53;5062553;28;20113;-86
2022/08/02 01:52:45;;;;;;;5.28;2.80;;;;;;;20.02;50.92;95052.53;5081147;28;20066;-85
2022/08/02 01:55:34;;;;;;;10.15;3.08;;;;;;;19.96;51.42;95072.75;5062545;28;20032;-86
2022/08/02 01:58:02;;;;;;;6.97;2.85;;;;;;;19.75;51.47;95035.16;5062045;28;20052;-85
2022/08/02 02:00:31;;;;;;;5.47;2.67;;;;;;;19.54;51.90;95031.72;5081653;28;20048;-86
2022/08/02 02:02:59;;;;;;;4.18;2.55;;;;;;;19.90;51.62;95082.94;5062987;28;20036;-86
2022/08/02 02:05:28;;;;;;;3.40;2.65;;;;;;;20.10;51.07;95100.13;5062649;28;20082;-86
2022/08/02 02:07:59;;;;;;;14.18;3.63;;;;;;;19.42;51.11;94977.91;5062730;28;20074;-86
2022/08/02 02:10:30;;;;;;;7.80;2.95;;;;;;;19.87;51.92;95091.66;5062062;28;20031;-86
2022/08/02 02:12:59;;;;;;;;;;;;;;;19.98;51.91;95086.66;5062115;28;20054;-86
2022/08/02 02:15:25;;;;;;;7.10;3.10;;;;;;;19.61;52.07;95030.06;5061917;28;19920;-86
2022/08/02 02:17:55;;;;;;;4.68;2.72;;;;;;;20.00;52.08;95087.88;5061944;28;20571;-86
2022/08/02 02:20:21;;;;;;;7.30;2.80;;;;;;;19.81;52.83;95073.38;5080086;28;20328;-86
2022/08/02 02:22:47;;;;;;;6.35;2.45;;;;;;;19.91;53.10;95094.50;5061089;28;20035;-86
2022/08/02 02:25:17;;;;;;;4.72;2.88;;;;;;;19.62;53.35;95066.63;5061545;28;20117;-86
2022/08/02 02:27:56;;;;;;;10.70;3.33;;;;;;;19.73;53.97;95093.88;5061153;28;20066;-86
2022/08/02 02:30:25;;;;;;;8.23;2.63;;;;;;;19.85;53.42;95104.66;5061559;28;20044;-84
2022/08/02 02:32:57;;;;;;;11.48;3.20;;;;;;;19.17;53.56;94993.19;5061776;28;20043;-85
2022/08/02 02:35:26;;;;;;;12.40;3.65;;;;;;;19.38;53.78;95036.13;5081010;28;20044;-85
2022/08/02 02:37:53;;;;;;;7.45;2.90;;;;;;;19.71;54.05;95093.44;5083698;28;20051;-85
2022/08/02 02:40:20;;;;;;;9.95;3.47;;;;;;;19.43;54.21;95042.13;5082192;28;20055;-85
2022/08/02 02:42:47;;;;;;;5.93;2.95;;;;;;;19.45;54.48;95064.09;5081492;28;20789;-85
2022/08/02 02:45:15;;;;;;;5.93;3.30;;;;;;;19.27;54.56;95043.84;5081099;28;20086;-85
2022/08/02 02:47:41;;;;;;;7.30;3.30;;;;;;;18.99;54.87;95026.75;5080867;28;20065;-85
2022/08/02 02:50:09;;;;;;;9.13;4.00;;;;;;;19.25;55.87;95097.97;5080808;28;20063;-85
2022/08/02 02:52:37;;;;;;;7.47;3.13;;;;;;;19.38;55.52;95101.47;5081526;28;20550;-85
2022/08/02 02:55:03;;;;;;;4.97;3.15;;;;;;;19.26;55.68;95083.41;5080557;28;20062;-85
2022/08/02 02:57:30;;;;;;;10.00;2.97;;;;;;;19.25;55.36;95097.97;5080758;28;20031;-86
2022/08/02 02:59:55;;;;;;;8.02;3.65;;;;;;;18.68;54.81;94994.91;5081594;28;20803;-85
2022/08/02 03:02:21;;;;;;;10.30;3.42;;;;;;;18.98;54.95;95047.44;5081141;28;20046;-85
2022/08/02 03:04:48;;;;;;;10.70;3.85;;;;;;;19.08;55.22;95079.28;5081685;28;20154;-85
2022/08/02 03:07:14;;;;;;;10.60;4.05;;;;;;;16.95;54.73;94718.97;5081075;28;20055;-85
2022/08/02 03:09:39;;;;;;;7.65;3.40;;;;;;;17.57;54.95;94801.34;5081542;28;20039;-85
2022/08/02 03:12:05;;;;;;;11.82;3.95;;;;;;;18.53;55.12;94974.78;5099461;28;20039;-84
2022/08/02 03:14:32;;;;;;;9.93;3.63;;;;;;;19.32;55.03;95089.34;5080205;28;20046;-84
2022/08/02 03:16:57;;;;;;;5.97;3.65;;;;;;;18.62;55.33;94961.28;5080507;28;20043;-85
2022/08/02 03:19:23;;;;;;;9.25;3.42;;;;;;;19.53;55.45;95110.88;5080435;28;20031;-84
2022/08/02 03:21:50;;;;;;;9.65;3.75;;;;;;;18.93;55.34;95015.38;5099199;28;20516;-85
2022/08/02 03:24:16;;;;;;;7.25;3.72;;;;;;;18.88;55.90;95020.97;5098795;28;20049;-86
2022/08/02 03:26:41;;;;;;;8.45;3.60;;;;;;;18.36;57.41;95025.91;5080302;28;20541;-85
2022/08/02 03:29:07;;;;;;;6.82;3.83;;;;;;;17.79;57.28;94918.28;5080141;28;20044;-85
2022/08/02 03:31:34;;;;;;;8.88;4.20;;;;;;;19.06;57.13;95104.94;5081205;28;20088;-86
2022/08/02 03:34:01;;;;;;;12.38;3.75;;;;;;;18.59;56.88;95029.09;5081186;28;20062;-85
2022/08/02 03:36:29;;;;;;;6.13;3.80;;;;;;;19.19;56.91;95107.34;5081308;28;20150;-85
2022/08/02 03:38:56;;;;;;;7.72;3.72;;;;;;;19.05;56.83;95093.38;5080560;28;20136;-85
2022/08/02 03:41:23;;;;;;;10.10;4.15;;;;;;;18.43;57.41;95002.81;5080693;28;20046;-85
2022/08/02 03:43:50;;;;;;;10.57;3.97;;;;;;;19.23;56.04;95113.63;5080979;28;20180;-85
2022/08/02 03:46:18;;;;;;;14.50;3.75;;;;;;;19.19;56.22;95110.03;5082401;28;20033;-85
2022/08/02 03:48:47;;;;;;;7.20;4.28;;;;;;;18.86;56.14;95050.06;5103788;28;20047;-85
2022/08/02 03:51:13;;;;;;;10.23;3.58;;;;;;;17.98;54.43;94916.75;5104352;28;20039;-85
2022/08/02 03:53:39;;;;;;;4.25;2.75;;;;;;;18.67;53.93;95044.38;5085570;28;20088;-85
2022/08/02 03:56:05;;;;;;;7.95;2.95;;;;;;;18.56;53.78;95029.72;5083958;28;20441;-85
2022/08/02 03:58:31;;;;;;;5.50;2.83;;;;;;;18.33;54.94;95053.41;5081220;28;20036;-85
2022/08/02 04:00:57;;;;;;;6.07;2.70;;;;;;;19.04;54.50;95118.69;5081515;28;20050;-85
2022/08/02 04:03:23;;;;;;;7.35;3.17;;;;;;;18.61;53.95;95032.25;5084949;28;20526;-85
2022/08/02 04:05:49;;;;;;;6.05;2.90;;;;;;;18.74;53.86;95052.69;5084221;28;20134;-85
2022/08/02 04:08:15;;;;;;;5.85;2.40;;;;;;;19.24;53.39;95111.72;5083735;28;20123;-85
2022/08/02 04:13:28;;;;;;;9.52;2.72;;;;;;;18.62;53.47;95058.75;5102877;28;20070;-85
2022/08/02 04:15:57;;;;;;;9.85;2.85;;;;;;;18.76;53.55;95042.41;5084052;28;20139;-86
2022/08/02 04:18:28;;;;;;;6.15;2.78;;;;;;;19.01;53.36;95087.09;5084660;28;20036;-85
2022/08/02 04:20:55;;;;;;;11.95;3.55;;;;;;;18.73;52.71;95033.09;5084482;28;20569;-85
2022/08/02 04:23:23;;;;;;;6.57;3.03;;;;;;;19.19;51.78;95075.09;5085222;28;20130;-85
2022/08/02 04:25:50;;;;;;;5.82;3.05;;;;;;;18.90;51.68;95051.00;5084397;28;20042;-85
2022/08/02 04:28:16;;;;;;;7.20;3.35;;;;;;;19.17;52.07;95100.72;5084933;28;20042;-85
2022/08/02 04:30:42;;;;;;;14.05;3.58;;;;;;;18.49;51.87;94990.75;5102637;28;20114;-85
2022/08/02 04:33:08;;;;;;;8.10;3.42;;;;;;;19.42;52.01;95160.78;5084431;28;20035;-85
2022/08/02 04:35:34;;;;;;;8.02;3.95;;;;;;;18.81;52.23;95037.63;5084473;28;20537;-85
2022/08/02 04:38:00;;;;;;;6.40;3.47;;;;;;;18.82;52.38;95059.91;5084355;28;20066;-85
2022/08/02 04:40:26;;;;;;;8.32;3.70;;;;;;;17.59;52.14;94828.63;5102647;28;20077;-85
2022/08/02 04:42:51;;;;;;;13.50;4.43;;;;;;;19.13;52.42;95075.63;5101952;28;20031;-85
2022/08/02 04:45:18;;;;;;;17.65;3.92;;;;;;;19.10;52.38;95060.13;5082367;28;20428;-85
2022/08/02 04:47:44;;;;;;;9.63;4.22;;;;;;;19.51;52.98;95140.00;5083584;28;20054;-84
2022/08/02 04:50:09;;;;;;;10.60;4.07;;;;;;;19.67;52.95;95151.72;5101390;28;20047;-84
2022/08/02 04:52:34;;;;;;;11.25;4.13;;;;;;;18.81;53.11;95002.69;5083470;28;20114;-84
2022/08/02 04:55:00;;;;;;;10.90;4.25;;;;;;;19.53;53.02;95124.31;5100850;28;20137;-85
2022/08/02 04:58:11;;;;;;;13.23;4.00;;;;;;;19.81;53.19;95141.44;5078820;28;20053;-84
2022/08/02 05:00:12;;;;;;;10.48;4.10;;;;;;;19.09;52.53;95043.22;5082306;28;20076;-84
2022/08/02 05:02:37;;;;;;;10.80;4.60;;;;;;;19.55;51.86;95089.78;5082092;28;20082;-86
2022/08/02 05:05:03;;;;;;;12.50;5.07;;;;;;;19.38;51.90;95090.72;5080039;28;20110;-85
2022/08/02 05:07:28;;;;;;;15.90;4.22;;;;;;;17.78;51.80;94828.19;5067591;28;20128;-84
2022/08/02 05:09:54;;;;;;;17.60;5.25;;;;;;;19.16;52.51;95093.75;5057947;28;20029;-85
2022/08/02 05:12:23;;;;;;;12.27;4.70;;;;;;;18.99;52.57;95053.59;5061067;28;20031;-84
2022/08/02 05:14:48;;;;;;;14.07;4.72;;;;;;;19.06;52.30;95062.72;5060896;28;20072;-85
2022/08/02 05:17:14;;;;;;;15.25;4.57;;;;;;;19.38;52.31;95098.00;5061080;28;20218;-85
2022/08/02 05:19:40;;;;;;;12.07;4.68;;;;;;;19.55;51.97;95124.75;5059988;28;20039;-85
2022/08/02 05:22:05;;;;;;;11.45;4.97;;;;;;;19.36;51.35;95094.88;5060213;28;20036;-85
2022/08/02 05:24:31;;;;;;;14.50;5.78;;;;;;;19.96;51.34;95165.03;5060306;28;20036;-85
2022/08/02 05:26:56;;;;;;;18.23;5.55;;;;;;;19.46;51.59;95086.38;5061009;28;20024;-85
2022/08/02 05:29:22;;;;;;;20.73;5.63;;;;;;;19.89;51.38;95121.72;5060980;28;20350;-85
2022/08/02 05:31:48;;;;;;;12.80;4.47;;;;;;;19.34;51.31;95041.41;5061427;28;20418;-85
2022/08/02 05:34:13;;;;;;;23.67;5.85;;;;;;;19.90;51.43;95104.47;5062161;28;20028;-85
2022/08/02 05:36:39;;;;;;;20.60;5.72;;;;;;;19.91;51.06;95081.03;5061616;28;20571;-86
2022/08/02 05:39:04;;;;;;;17.08;6.15;;;;;;;20.15;50.93;95110.66;5045913;28;1178075;-86
2022/08/02 05:41:30;;;;;;;13.55;5.15;;;;;;;19.47;51.67;95004.59;5101014;28;20426;-85
2022/08/02 05:43:55;;;;;;;15.27;4.93;;;;;;;18.69;50.88;94865.63;5099955;28;20030;-85
2022/08/02 05:46:21;;;;;;;13.73;4.88;;;;;;;20.28;50.27;95117.63;5100305;28;20082;-85
2022/08/02 05:48:46;;;;;;;17.50;6.18;;;;;;;20.19;50.31;95097.31;5081098;28;20771;-85
2022/08/02 05:51:27;;;;;;;15.30;5.45;;;;;;;20.18;50.16;95093.84;5081688;28;20032;-85
2022/08/02 05:54:05;;;;;;;19.02;5.60;;;;;;;20.72;50.10;95169.06;5100949;28;20042;-85
2022/08/02 05:56:32;;;;;;;11.40;4.97;;;;;;;20.77;49.49;95164.22;5081783;28;20132;-85
2022/08/02 05:59:12;;;;;;;24.80;5.22;;;;;;;20.84;49.64;95177.13;5081828;28;20031;-86
2022/08/02 06:01:41;;;;;;;18.60;5.18;;;;;;;20.79;49.38;95155.81;5081550;28;20161;-85
2022/08/02 06:04:10;;;;;;;14.18;4.95;;;;;;;21.07;48.75;95180.16;5081420;28;20098;-85
2022/08/02 06:06:36;;;;;;;20.85;5.32;;;;;;;20.96;48.49;95154.78;5080675;28;20043;-85
2022/08/02 06:09:14;;;;;;;13.82;4.78;;;;;;;20.37;48.84;95077.13;5098860;28;20130;-85
2022/08/02 06:11:45;;;;;;;13.13;5.18;;;;;;;20.63;48.57;95093.75;5082711;28;20497;-85
2022/08/02 06:14:12;;;;;;;12.90;5.00;;;;;;;20.42;48.67;95055.38;5082212;28;20042;-85
2022/08/02 06:16:38;;;;;;;14.20;4.45;;;;;;;21.24;47.94;95168.34;5085300;28;20039;-85
2022/08/02 06:19:04;;;;;;;11.98;4.75;;;;;;;21.44;47.47;95187.06;5081714;28;20042;-85
2022/08/02 06:21:30;;;;;;;12.30;4.50;;;;;;;21.05;47.75;95152.75;5081098;28;20465;-85
2022/08/02 06:23:57;;;;;;;15.45;5.43;;;;;;;20.39;48.32;95074.91;5080028;28;20505;-85
2022/08/02 06:26:24;;;;;;;15.63;4.57;;;;;;;21.28;48.43;95188.13;5102405;28;20059;-85
2022/08/02 06:28:51;;;;;;;19.67;5.00;;;;;;;21.26;48.00;95169.59;5100033;28;20035;-85
2022/08/02 06:31:17;;;;;;;10.90;4.03;;;;;;;21.26;47.04;95175.00;5081507;28;20386;-85
2022/08/02 06:33:43;;;;;;;15.90;3.85;;;;;;;21.12;47.58;95131.41;5081148;28;20430;-84
2022/08/02 06:36:36;;;;;;;9.93;3.72;;;;;;;21.13;46.57;95141.06;5081612;28;20057;-85
2022/08/02 06:39:07;;;;;;;11.80;4.82;;;;;;;20.94;47.88;95130.88;5079059;28;20117;-85
2022/08/02 06:41:43;;;;;;;21.10;6.15;;;;;;;21.03;46.91;95146.91;5080870;28;20494;-85
2022/08/02 06:44:09;;;;;;;18.25;5.40;;;;;;;20.83;47.54;95115.50;5080048;28;20039;-85
2022/08/02 06:46:36;;;;;;;17.17;4.90;;;;;;;20.57;46.37;95060.06;5093970;28;20046;-85
2022/08/02 06:49:02;;;;;;;22.48;8.48;;;;;;;21.50;46.85;95196.50;5099783;28;20055;-85
2022/08/02 06:51:28;;;;;;;19.10;8.63;;;;;;;21.57;47.11;95185.13;5080828;28;20035;-85
2022/08/02 06:53:54;;;;;;;17.05;6.85;;;;;;;20.57;46.89;95016.19;5081575;28;20362;-84
2022/08/02 06:56:20;;;;;;;13.77;4.60;;;;;;;21.69;46.01;95181.59;5099791;28;20494;-85
2022/08/02 06:58:45;;;;;;;7.45;3.25;;;;;;;21.11;45.68;95110.94;5100236;28;20032;-85
2022/08/02 07:01:11;;;;;;;14.07;3.65;;;;;;;21.56;45.82;95191.66;5099445;28;20042;-85
2022/08/02 07:03:38;;;;;;;16.27;3.60;;;;;;;21.64;45.40;95196.13;5097173;28;20039;-86
2022/08/02 07:06:05;;;;;;;5.05;2.63;;;;;;;21.65;44.81;95186.91;5080472;28;20047;-86
2022/08/02 07:08:31;;;;;;;5.43;2.72;;;;;;;21.19;45.02;95123.53;5079887;28;20421;-85
2022/08/02 07:10:59;;;;;;;9.50;2.55;;;;;;;21.68;44.68;95185.41;5080046;28;20342;-85
2022/08/02 07:13:26;;;;;;;4.80;2.70;;;;;;;21.11;44.33;95094.78;5099343;28;20549;-85
2022/08/02 07:15:52;;;;;;;7.15;2.97;;;;;;;21.54;44.54;95162.31;5080281;28;20032;-85
2022/08/02 07:18:17;;;;;;;15.48;2.83;;;;;;;21.46;44.30;95130.84;5080978;28;20451;-85
2022/08/02 07:20:43;;;;;;;8.15;3.03;;;;;;;21.46;44.69;95113.88;5080201;28;20028;-85
2022/08/02 07:23:08;;;;;;;12.82;2.45;;;;;;;21.52;44.98;95115.97;5097249;28;20031;-85
2022/08/02 07:25:34;;;;;;;10.95;3.00;;;;;;;21.25;45.10;95078.22;5098837;28;20035;-85
2022/08/02 07:28:00;;;;;;;9.65;7.95;;;;;;;21.97;43.96;95193.19;5078103;28;20035;-85
2022/08/02 07:30:25;;;;;;;7.25;2.55;;;;;;;21.51;44.07;95129.84;5072346;28;20147;-85
2022/08/02 07:32:51;;;;;;;7.90;2.35;;;;;;;21.81;43.84;95128.34;5077767;28;20042;-85
2022/08/02 07:35:16;;;;;;;6.45;2.28;;;;;;;21.36;43.43;95063.13;5077763;28;20065;-85
2022/08/02 07:37:44;;;;;;;5.13;2.13;;;;;;;21.83;43.27;95152.28;5078592;28;20062;-85
2022/08/02 07:40:11;;;;;;;16.05;2.45;;;;;;;22.10;43.21;95165.00;5099230;28;20050;-85
2022/08/02 07:42:37;;;;;;;4.63;2.08;;;;;;;22.25;42.53;95177.75;5080240;28;20039;-85
2022/08/02 07:45:02;;;;;;;4.35;2.05;;;;;;;21.57;43.16;95085.28;5079735;28;20458;-85
2022/08/02 07:47:28;;;;;;;2.78;2.10;;;;;;;22.05;42.44;95159.06;5079786;28;20046;-85
2022/08/02 07:49:53;;;;;;;4.90;1.90;;;;;;;20.58;42.83;94953.88;5078296;28;20205;-84
2022/08/02 07:52:19;;;;;;;5.45;2.25;;;;;;;21.34;42.94;95033.81;5080409;28;20046;-85
2022/08/02 07:54:45;;;;;;;5.93;2.05;;;;;;;22.23;41.95;95166.50;5080856;28;20028;-85
2022/08/02 07:57:11;;;;;;;6.38;1.77;;;;;;;21.59;42.39;95061.41;5079665;28;20036;-85
2022/08/02 07:59:36;;;;;;;9.57;3.15;;;;;;;22.44;42.19;95158.13;5075573;28;20521;-85
2022/08/02 08:02:02;;;;;;;3.00;1.60;;;;;;;22.37;42.22;95151.75;5076265;28;20032;-85
2022/08/02 08:04:27;;;;;;;6.95;2.22;;;;;;;21.86;42.88;95065.22;5094097;28;20043;-85
2022/08/02 08:06:54;;;;;;;5.32;1.92;;;;;;;22.48;42.55;95139.31;5077455;28;20036;-85
2022/08/02 08:09:19;;;;;;;13.82;2.40;;;;;;;22.75;41.69;95178.19;5098016;28;20036;-85
2022/08/02 08:11:45;;;;;;;4.13;1.83;;;;;;;22.30;41.98;95101.03;5080845;28;20092;-84
2022/08/02 08:14:10;;;;;;;3.97;1.60;;;;;;;22.19;41.86;95079.19;5079743;28;20039;-85
2022/08/02 08:16:36;;;;;;;6.20;2.28;;;;;;;22.93;42.59;95177.47;5093180;28;20075;-85
2022/08/02 08:19:01;;;;;;;3.38;2.03;;;;;;;22.85;42.17;95164.16;5095104;28;20423;-85
2022/08/02 08:21:28;;;;;;;5.75;1.77;;;;;;;22.90;41.57;95161.94;5074929;28;20438;-84
2022/08/02 08:23:54;;;;;;;2.70;1.90;;;;;;;22.26;42.10;95073.97;5086825;28;20555;-85
2022/08/02 08:26:20;;;;;;;6.68;2.35;;;;;;;22.97;42.20;95155.91;5072828;28;20143;-85
2022/08/02 08:28:46;;;;;;;3.67;2.30;;;;;;;22.98;42.22;95163.69;5053848;28;20249;-85
2022/08/02 08:31:12;;;;;;;6.78;2.10;;;;;;;23.04;42.03;95186.59;5059399;28;20041;-84
2022/08/02 08:33:37;;;;;;;2.00;1.50;;;;;;;22.80;42.12;95121.16;5065486;28;20032;-85
2022/08/02 08:36:03;;;;;;;3.25;1.67;;;;;;;22.98;42.27;95135.84;5069164;28;20032;-84
2022/08/02 08:38:28;;;;;;;4.47;1.63;;;;;;;23.14;42.05;95179.09;5072820;28;20086;-84
2022/08/02 08:40:54;;;;;;;3.70;1.90;;;;;;;22.07;42.13;95010.97;5070143;28;20036;-84
2022/08/02 08:43:20;;;;;;;6.38;2.05;;;;;;;22.84;42.47;95116.59;5060416;28;20061;-84
2022/08/02 08:45:47;;;;;;;3.47;2.10;;;;;;;22.83;42.37;95115.81;5080669;28;20559;-84
2022/08/02 08:48:15;;;;;;;3.08;1.35;;;;;;;23.31;41.85;95176.78;5061221;28;20032;-84
2022/08/02 08:51:05;;;;;;;6.22;1.90;;;;;;;23.04;41.91;95148.75;5059921;28;20555;-84
2022/08/02 08:53:39;;;;;;;1.75;1.40;;;;;;;22.81;41.92;95118.09;5080362;28;20036;-84
2022/08/02 08:56:05;;;;;;;3.75;1.17;;;;;;;22.70;41.88;95098.13;5062035;28;20032;-85
2022/08/02 08:58:30;;;;;;;1.83;1.45;;;;;;;22.33;41.78;95022.00;5063390;28;20059;-85
2022/08/02 09:00:56;;;;;;;1.48;1.20;;;;;;;23.28;41.20;95163.16;5062573;28;20035;-85
2022/08/02 09:03:21;;;;;;;2.67;1.20;;;;;;;22.27;41.20;94986.38;5080904;28;20446;-85
2022/08/02 09:05:47;;;;;;;1.38;1.05;;;;;;;23.21;40.83;95106.97;5086462;28;20031;-84
2022/08/02 09:08:13;;;;;;;2.30;1.10;;;;;;;23.36;41.08;95146.72;5075883;28;20040;-85
2022/08/02 09:10:47;;;;;;;3.45;1.30;;;;;;;23.19;40.98;95086.84;5100657;28;20655;-85
2022/08/02 09:13:23;;;;;;;3.75;1.75;;;;;;;23.80;41.95;95187.09;5083198;28;20059;-85
2022/08/02 09:16:00;;;;;;;1.55;1.30;;;;;;;23.87;40.98;95162.88;5082453;28;20451;-85
2022/08/02 09:18:34;;;;;;;2.75;1.35;;;;;;;23.79;40.75;95163.88;5083309;28;20043;-85
2022/08/02 09:21:01;;;;;;;6.80;1.30;;;;;;;23.83;40.07;95148.47;5101937;28;20119;-84
2022/08/02 09:23:54;;;;;;;2.40;1.15;;;;;;;23.87;40.27;95164.78;5082033;28;20859;-85
2022/08/02 09:26:22;;;;;;;4.10;1.25;;;;;;;23.87;40.10;95162.06;5066688;28;20044;-85
2022/08/02 09:28:50;;;;;;;3.70;0.90;;;;;;;23.93;39.29;95157.94;5074636;28;20502;-85
2022/08/02 09:31:20;;;;;;;2.00;1.10;;;;;;;23.43;39.96;95100.06;5082533;28;20031;-85
2022/08/02 09:33:58;;;;;;;4.43;1.55;;;;;;;23.95;40.59;95155.66;5080515;28;20059;-85
2022/08/02 09:36:26;;;;;;;1.77;1.20;;;;;;;24.04;40.46;95158.91;5097678;28;20481;-85
2022/08/02 09:38:58;;;;;;;1.75;1.08;;;;;;;24.19;40.42;95155.28;5095450;28;20047;-85
2022/08/02 09:41:30;;;;;;;2.03;1.10;;;;;;;24.35;40.42;95153.28;5080697;28;20039;-85
2022/08/02 09:43:57;;;;;;;4.45;1.25;;;;;;;23.73;40.78;95051.56;5099440;28;20062;-85
2022/08/02 09:46:26;;;;;;;4.35;1.20;;;;;;;23.44;40.07;94990.69;5071952;28;20396;-85
2022/08/02 09:49:00;;;;;;;3.05;1.13;;;;;;;24.34;39.66;95138.16;5074719;28;20106;-85
2022/08/02 09:51:31;;;;;;;2.83;1.38;;;;;;;24.61;39.89;95141.72;5057032;28;20047;-85
2022/08/02 09:53:59;;;;;;;2.15;1.25;;;;;;;24.37;39.89;95055.38;5073111;28;20478;-85
2022/08/02 09:56:27;;;;;;;1.67;1.20;;;;;;;25.54;37.77;95135.69;5091361;28;20573;-85
2022/08/02 09:58:55;;;;;;;4.82;1.17;;;;;;;25.17;35.93;94970.84;5077703;28;20476;-85
2022/08/02 10:01:29;;;;;;;4.80;1.30;;;;;;;26.81;34.51;95036.31;5074337;28;20077;-85
2022/08/02 10:03:58;;;;;;;1.85;1.30;;;;;;;28.06;33.36;95043.00;5084345;28;20031;-85
2022/08/02 10:06:24;;;;;;;3.28;1.13;;;;;;;29.60;31.40;95135.22;5060039;28;20032;-85
2022/08/02 10:08:52;;;;;;;2.53;1.00;;;;;;;29.84;30.08;95130.84;5058021;28;20057;-85
2022/08/02 10:11:18;;;;;;;2.10;1.10;;;;;;;29.77;29.64;95084.41;5061117;28;20095;-85
2022/08/02 10:13:44;;;;;;;1.70;1.20;;;;;;;30.78;28.27;95080.63;5061988;28;20059;-84
2022/08/02 10:16:10;;;;;;;1.60;0.90;;;;;;;-143.51;100.00;62207.84;5090256;28;20224;-84
2022/08/02 10:18:36;;;;;;;2.88;0.90;;;;;;;-143.51;28.27;70687.84;5088286;28;20028;-85
2022/08/02 10:21:05;;;;;;;4.68;1.00;;;;;;;33.50;25.12;95121.91;5079483;28;20038;-85
2022/08/02 10:23:35;;;;;;;5.43;1.30;;;;;;;33.15;25.67;95058.16;5066522;28;20571;-84
2022/08/02 10:26:02;;;;;;;2.22;0.75;;;;;;;33.18;25.71;95092.25;5058987;28;20036;-85
2022/08/02 10:28:31;;;;;;;1.27;0.90;;;;;;;32.82;25.73;95098.38;5081162;27;20036;-85
2022/08/02 10:31:00;;;;;;;1.27;0.90;;;;;;;32.06;27.68;95118.31;5061762;28;20518;-85
2022/08/02 10:33:26;;;;;;;3.88;0.90;;;;;;;30.36;28.90;95074.31;5086136;28;20245;-86
2022/08/02 10:35:56;;;;;;;2.10;1.00;;;;;;;29.59;29.07;95024.41;5084872;28;20035;-86
2022/08/02 10:38:23;;;;;;;1.65;1.10;;;;;;;29.64;29.51;95048.56;5058342;28;20052;-85
2022/08/02 10:40:51;;;;;;;5.53;1.13;;;;;;;29.85;29.46;95122.25;5046837;28;20048;-85
2022/08/02 10:43:35;;;;;;;4.32;1.20;;;;;;;29.68;29.73;95123.09;5091728;28;20046;-86
2022/08/02 10:46:31;;;;;;;2.33;1.05;;;;;;;29.88;29.40;95124.19;5073093;28;20571;-85
2022/08/02 10:49:20;;;;;;;1.98;1.25;;;;;;;30.11;29.43;95082.69;5084337;28;20698;-85
2022/08/02 10:51:52;;;;;;;1.70;0.82;;;;;;;30.48;29.13;95111.34;5090474;28;20486;-85
2022/08/02 10:54:22;;;;;;;1.38;1.10;;;;;;;30.39;29.31;95078.97;5078565;28;20035;-86
2022/08/02 10:56:50;;;;;;;1.95;1.10;;;;;;;30.12;28.17;94994.00;5078781;28;20044;-86
2022/08/02 10:59:22;;;;;;;2.92;1.42;;;;;;;30.95;28.92;95107.84;5086339;28;20042;-85
2022/08/02 11:01:47;;;;;;;2.03;0.93;;;;;;;29.21;29.79;94862.28;5076401;28;20221;-85
2022/08/02 11:04:13;;;;;;;1.65;1.13;;;;;;;28.98;30.00;94879.19;5078848;28;20142;-86
2022/08/02 11:07:12;;;;;;;5.22;1.15;;;;;;;30.60;29.73;95078.81;5076142;28;20126;-85
2022/08/02 11:09:39;;;;;;;3.00;1.00;;;;;;;31.28;28.90;95111.81;5036801;28;20065;-85
2022/08/02 11:12:10;;;;;;;2.05;1.00;;;;;;;30.05;29.72;94878.44;5078448;28;20039;-85
2022/08/02 11:14:39;;;;;;;4.68;1.00;;;;;;;31.88;28.94;95102.13;5097845;28;20107;-85
2022/08/02 11:17:08;;;;;;;3.85;1.25;;;;;;;31.80;27.06;95101.44;5092616;28;20039;-85
2022/08/02 11:19:54;;;;;;;1.20;0.95;;;;;;;30.85;27.25;95066.84;5099472;28;20451;-85
2022/08/02 11:22:19;;;;;;;1.65;1.05;;;;;;;30.36;27.98;95016.84;5078085;28;20104;-85
2022/08/02 11:24:46;;;;;;;2.35;1.10;;;;;;;30.78;27.29;95094.31;5071816;28;20035;-85
2022/08/02 11:27:20;;;;;;;2.47;1.02;;;;;;;30.67;27.88;95083.44;5071679;28;20055;-85
2022/08/02 11:29:49;;;;;;;2.13;1.02;;;;;;;30.41;28.46;95089.50;5065699;28;20421;-85
2022/08/02 11:32:23;;;;;;;1.25;0.80;;;;;;;30.79;28.46;95107.59;5079643;28;20043;-85
2022/08/02 11:34:51;;;;;;;0.68;0.65;;;;;;;30.58;30.51;95114.03;5075051;28;20062;-85
2022/08/02 11:37:39;;;;;;;2.60;0.80;;;;;;;30.38;29.36;95098.50;5088753;28;20039;-85
2022/08/02 11:40:15;;;;;;;2.67;1.15;;;;;;;30.41;29.17;95090.28;5072365;28;20047;-86